Time;durP1;ratioP1;P1;durP2;ratioP2;P2;SDS_P1;SDS_P2;PMS_P1;PMS_P2;Temp;Humidity;BMP_temperature;BMP_pressure;BME280_temperature;BME280_humidity;BME280_pressure;Samples;Min_cycle;Max_cycle;Signal;HPM_P1;HPM_P2
2023/10/26 00:00:30;;;;;;;21.27;16.70;;;10.20;99.90;;;;;;5108168;27;20040;-27
2023/10/26 00:02:56;;;;;;;26.48;18.83;;;10.10;99.90;;;;;;5112922;27;20397;-26
2023/10/26 00:05:21;;;;;;;23.17;17.35;;;10.10;99.90;;;;;;5105430;28;20465;-26
2023/10/26 00:07:47;;;;;;;24.88;17.60;;;10.10;99.90;;;;;;5109531;27;20039;-27
2023/10/26 00:10:13;;;;;;;26.67;18.85;;;10.10;99.90;;;;;;5108937;28;20482;-28
2023/10/26 00:12:38;;;;;;;23.67;18.10;;;10.10;99.90;;;;;;5110442;27;20043;-28
2023/10/26 00:15:05;;;;;;;22.83;17.08;;;10.10;99.90;;;;;;5102141;27;20035;-27
2023/10/26 00:17:30;;;;;;;27.27;18.10;;;10.00;99.90;;;;;;5109098;27;20042;-28
2023/10/26 00:19:56;;;;;;;23.05;18.65;;;10.00;99.90;;;;;;5109699;27;20031;-28
2023/10/26 00:22:22;;;;;;;23.30;16.55;;;10.00;99.90;;;;;;5104056;27;20383;-27
2023/10/26 00:24:48;;;;;;;24.20;17.30;;;10.00;99.90;;;;;;5100625;27;20040;-28
2023/10/26 00:27:14;;;;;;;22.33;17.23;;;9.90;99.90;;;;;;5099730;27;20379;-27
2023/10/26 00:29:40;;;;;;;22.17;17.52;;;9.90;99.90;;;;;;5114396;27;20043;-26
2023/10/26 00:32:07;;;;;;;24.63;19.05;;;9.90;99.90;;;;;;5100187;28;20063;-28
2023/10/26 00:34:34;;;;;;;26.65;19.15;;;9.90;99.90;;;;;;5110728;27;20051;-27
2023/10/26 00:37:00;;;;;;;26.83;18.45;;;9.90;99.90;;;;;;5102025;27;20034;-26
2023/10/26 00:39:25;;;;;;;23.70;18.23;;;9.90;99.90;;;;;;5104546;27;20032;-25
2023/10/26 00:41:52;;;;;;;28.17;18.73;;;9.90;99.90;;;;;;5111792;27;20062;-25
2023/10/26 00:44:18;;;;;;;25.60;19.05;;;9.90;99.90;;;;;;5109639;27;20043;-25
2023/10/26 00:46:44;;;;;;;27.33;19.33;;;9.90;99.90;;;;;;5115450;27;20093;-25
2023/10/26 00:49:12;;;;;;;25.67;18.77;;;9.90;99.90;;;;;;5110357;27;20035;-25
2023/10/26 00:51:51;;;;;;;33.00;20.38;;;9.90;99.90;;;;;;5113616;27;20486;-25
2023/10/26 00:54:22;;;;;;;27.90;20.00;;;9.90;99.90;;;;;;5114202;27;20042;-25
2023/10/26 00:56:50;;;;;;;32.42;21.85;;;9.90;99.90;;;;;;5113406;27;20110;-25
2023/10/26 00:59:17;;;;;;;28.85;19.83;;;9.90;99.90;;;;;;5101258;27;20035;-25
2023/10/26 01:01:45;;;;;;;28.20;20.95;;;9.90;99.90;;;;;;5112933;28;20050;-25
2023/10/26 01:04:15;;;;;;;29.27;21.25;;;9.90;99.90;;;;;;5115499;27;20385;-25
2023/10/26 01:06:42;;;;;;;28.58;20.85;;;9.90;99.90;;;;;;5112888;28;20054;-25
2023/10/26 01:09:08;;;;;;;25.58;18.88;;;9.90;99.90;;;;;;5116304;27;20118;-25
2023/10/26 01:11:35;;;;;;;31.58;20.13;;;10.00;99.90;;;;;;5105657;28;20067;-25
2023/10/26 01:14:00;;;;;;;31.95;21.58;;;10.00;99.90;;;;;;5120255;27;20037;-25
2023/10/26 01:16:26;;;;;;;30.02;21.63;;;10.00;99.90;;;;;;5115171;27;20478;-25
2023/10/26 01:18:52;;;;;;;30.65;21.92;;;9.90;99.90;;;;;;5112213;27;20039;-25
2023/10/26 01:21:18;;;;;;;33.60;23.73;;;9.90;99.90;;;;;;5092236;28;20399;-25
2023/10/26 01:23:43;;;;;;;32.40;22.40;;;9.90;99.90;;;;;;5103720;28;20405;-25
2023/10/26 01:26:09;;;;;;;37.35;24.52;;;9.90;99.90;;;;;;5116343;28;20077;-25
2023/10/26 01:28:35;;;;;;;37.25;24.80;;;9.90;99.90;;;;;;5112503;28;20040;-25
2023/10/26 01:31:00;;;;;;;32.53;22.55;;;9.90;99.90;;;;;;5113352;28;20482;-25
2023/10/26 01:33:26;;;;;;;32.10;22.33;;;9.90;99.90;;;;;;5115515;28;20041;-25
2023/10/26 01:35:52;;;;;;;35.38;24.00;;;9.90;99.90;;;;;;5113064;27;20070;-25
2023/10/26 01:38:17;;;;;;;36.80;24.30;;;9.90;99.90;;;;;;5112366;28;20043;-25
2023/10/26 01:40:43;;;;;;;32.92;23.08;;;9.90;99.90;;;;;;5113970;28;20040;-25
2023/10/26 01:43:09;;;;;;;36.33;24.60;;;9.90;99.90;;;;;;5121257;28;20110;-25
2023/10/26 01:45:35;;;;;;;36.25;24.45;;;9.90;99.90;;;;;;5113159;28;20040;-25
2023/10/26 01:48:03;;;;;;;37.33;24.50;;;9.90;99.90;;;;;;5113129;28;20066;-25
2023/10/26 01:50:29;;;;;;;35.83;25.00;;;9.90;99.90;;;;;;5105703;28;20074;-25
2023/10/26 01:52:55;;;;;;;38.80;25.73;;;9.90;99.90;;;;;;5105098;28;20039;-25
2023/10/26 01:55:21;;;;;;;35.13;25.42;;;9.90;99.90;;;;;;5119214;28;20085;-25
2023/10/26 01:57:46;;;;;;;34.00;25.25;;;9.90;99.90;;;;;;5101735;28;20399;-25
2023/10/26 02:00:12;;;;;;;36.00;24.83;;;9.90;99.90;;;;;;5112380;28;20047;-25
2023/10/26 02:02:38;;;;;;;33.00;24.77;;;9.90;99.90;;;;;;5113253;28;20092;-25
2023/10/26 02:05:04;;;;;;;33.65;25.48;;;9.80;99.90;;;;;;5114717;27;20078;-25
2023/10/26 02:07:30;;;;;;;38.30;26.63;;;9.80;99.90;;;;;;5125226;27;20035;-25
2023/10/26 02:09:56;;;;;;;36.65;25.48;;;9.80;99.90;;;;;;5104881;28;20085;-25
2023/10/26 02:12:21;;;;;;;42.92;29.98;;;9.80;99.90;;;;;;5100284;28;20475;-25
2023/10/26 02:14:48;;;;;;;39.90;26.85;;;9.80;99.90;;;;;;5124337;27;20034;-25
2023/10/26 02:17:13;;;;;;;40.03;26.77;;;9.70;99.90;;;;;;5120193;27;20040;-25
2023/10/26 02:19:39;;;;;;;38.47;25.40;;;9.60;99.90;;;;;;5106471;28;20036;-25
2023/10/26 02:22:05;;;;;;;35.88;25.23;;;9.60;99.90;;;;;;5114754;28;20474;-25
2023/10/26 02:24:30;;;;;;;32.72;25.13;;;9.60;99.90;;;;;;5110510;27;20475;-25
2023/10/26 02:26:56;;;;;;;42.15;26.50;;;9.60;99.90;;;;;;5125148;27;20417;-25
2023/10/26 02:29:21;;;;;;;38.13;26.50;;;9.50;99.90;;;;;;5100833;28;20035;-25
2023/10/26 02:31:47;;;;;;;38.33;27.42;;;9.50;99.90;;;;;;5115622;28;20043;-25
2023/10/26 02:34:13;;;;;;;34.03;24.42;;;9.50;99.90;;;;;;5113714;28;20130;-25
2023/10/26 02:36:38;;;;;;;39.63;26.35;;;9.60;99.90;;;;;;5109642;28;20038;-25
2023/10/26 02:39:04;;;;;;;39.33;26.73;;;9.60;99.90;;;;;;5106553;28;20040;-25
2023/10/26 02:41:30;;;;;;;42.28;28.25;;;9.60;99.90;;;;;;5118297;27;20039;-25
2023/10/26 02:43:56;;;;;;;40.53;27.63;;;9.60;99.90;;;;;;5115299;27;20367;-25
2023/10/26 02:46:23;;;;;;;42.40;29.58;;;9.60;99.90;;;;;;5103552;27;20440;-25
2023/10/26 02:48:49;;;;;;;43.92;28.48;;;9.60;99.90;;;;;;5099664;28;20044;-25
2023/10/26 02:51:14;;;;;;;44.33;28.27;;;9.70;99.90;;;;;;5108387;28;20359;-25
2023/10/26 02:53:42;;;;;;;43.33;29.70;;;9.70;99.90;;;;;;5121900;27;20048;-25
2023/10/26 02:56:08;;;;;;;46.72;28.60;;;9.70;99.90;;;;;;5115162;27;20425;-25
2023/10/26 02:58:34;;;;;;;43.20;28.00;;;9.80;99.90;;;;;;5110193;27;20051;-25
2023/10/26 03:00:59;;;;;;;44.60;28.92;;;9.70;99.90;;;;;;5124049;27;20031;-25
2023/10/26 03:03:25;;;;;;;50.72;32.50;;;9.70;99.90;;;;;;5115813;27;20036;-25
2023/10/26 03:05:52;;;;;;;44.08;28.80;;;9.80;99.90;;;;;;5123481;27;20038;-25
2023/10/26 03:08:18;;;;;;;45.85;29.48;;;9.70;99.90;;;;;;5114370;28;20525;-25
2023/10/26 03:10:43;;;;;;;47.85;30.83;;;9.80;99.90;;;;;;5108619;28;20169;-25
2023/10/26 03:13:10;;;;;;;44.88;29.65;;;9.80;99.90;;;;;;5113181;28;20055;-25
2023/10/26 03:15:35;;;;;;;43.25;30.10;;;9.80;99.90;;;;;;5101832;27;20044;-25
2023/10/26 03:18:01;;;;;;;44.83;28.92;;;9.80;99.90;;;;;;5122444;27;20037;-25
2023/10/26 03:20:27;;;;;;;41.95;29.67;;;9.80;99.90;;;;;;5107463;28;20031;-25
2023/10/26 03:22:53;;;;;;;59.25;30.90;;;9.80;99.90;;;;;;5101373;28;20487;-25
2023/10/26 03:25:18;;;;;;;48.83;30.98;;;9.80;99.90;;;;;;5105596;27;20032;-25
2023/10/26 03:27:44;;;;;;;46.92;29.73;;;9.80;99.90;;;;;;5110861;27;20034;-25
2023/10/26 03:30:10;;;;;;;48.55;29.95;;;9.80;99.90;;;;;;5104522;28;20042;-25
2023/10/26 03:32:36;;;;;;;53.20;30.85;;;9.80;99.90;;;;;;5114947;27;20402;-25
2023/10/26 03:35:03;;;;;;;50.53;31.65;;;9.80;99.90;;;;;;5109615;28;20032;-25
2023/10/26 03:37:29;;;;;;;49.53;30.90;;;9.80;99.90;;;;;;5114152;27;20039;-25
2023/10/26 03:39:55;;;;;;;47.83;31.92;;;9.80;99.90;;;;;;5116951;27;20367;-25
2023/10/26 03:42:21;;;;;;;45.72;30.88;;;9.80;99.90;;;;;;5118486;27;20042;-25
2023/10/26 03:44:46;;;;;;;47.95;30.40;;;9.80;99.90;;;;;;5117484;27;20032;-25
2023/10/26 03:47:13;;;;;;;46.17;30.50;;;9.80;99.90;;;;;;5114411;27;20035;-25
2023/10/26 03:49:38;;;;;;;53.85;32.45;;;9.80;99.90;;;;;;5107798;28;20043;-25
2023/10/26 03:52:05;;;;;;;46.95;30.98;;;9.80;99.90;;;;;;5113691;28;20028;-25
2023/10/26 03:54:30;;;;;;;46.33;31.85;;;9.80;99.90;;;;;;5106401;28;20085;-25
2023/10/26 03:56:56;;;;;;;51.72;30.80;;;9.90;99.90;;;;;;5115454;27;20039;-25
2023/10/26 03:59:22;;;;;;;50.17;31.63;;;9.80;99.90;;;;;;5113978;27;20046;-25
2023/10/26 04:01:47;;;;;;;49.58;31.30;;;9.90;99.90;;;;;;5108409;28;20470;-25
2023/10/26 04:04:13;;;;;;;51.95;32.10;;;9.80;99.90;;;;;;5113820;27;20039;-25
2023/10/26 04:06:39;;;;;;;49.78;32.03;;;9.80;99.90;;;;;;5107748;28;20032;-25
2023/10/26 04:09:04;;;;;;;47.63;31.80;;;9.80;99.90;;;;;;5123051;27;20084;-25
2023/10/26 04:11:30;;;;;;;47.13;31.08;;;9.80;99.90;;;;;;5109301;27;20076;-25
2023/10/26 04:13:57;;;;;;;45.08;30.27;;;9.80;99.90;;;;;;5101573;27;20031;-25
2023/10/26 04:16:24;;;;;;;48.80;29.98;;;9.80;99.90;;;;;;5111169;27;20050;-25
2023/10/26 04:18:51;;;;;;;48.10;31.02;;;9.80;99.90;;;;;;5109086;27;20046;-25
2023/10/26 04:21:16;;;;;;;50.25;31.45;;;9.80;99.90;;;;;;5113804;28;20050;-25
2023/10/26 04:23:42;;;;;;;45.45;30.58;;;9.80;99.90;;;;;;5123216;27;20035;-25
2023/10/26 04:26:09;;;;;;;45.78;30.25;;;9.80;99.90;;;;;;5113120;28;20067;-25
2023/10/26 04:28:36;;;;;;;51.50;30.70;;;9.80;99.90;;;;;;5112709;28;20183;-25
2023/10/26 04:31:04;;;;;;;50.45;31.05;;;9.80;99.90;;;;;;5103200;28;20039;-25
2023/10/26 04:33:30;;;;;;;48.35;30.95;;;9.80;99.90;;;;;;5093469;28;20127;-25
2023/10/26 04:35:57;;;;;;;49.05;32.22;;;9.80;99.90;;;;;;5114712;27;20576;-25
2023/10/26 04:38:22;;;;;;;49.78;30.10;;;9.80;99.90;;;;;;5118954;27;20494;-25
2023/10/26 04:40:48;;;;;;;50.60;32.80;;;9.80;99.90;;;;;;5101581;28;20073;-25
2023/10/26 04:43:14;;;;;;;51.65;31.52;;;9.80;99.90;;;;;;5121359;27;20541;-25
2023/10/26 04:45:39;;;;;;;48.65;32.83;;;9.80;99.90;;;;;;5112417;27;20038;-25
2023/10/26 04:48:05;;;;;;;53.03;32.45;;;9.80;99.90;;;;;;5110951;27;20038;-25
2023/10/26 04:50:31;;;;;;;46.72;31.23;;;9.80;99.90;;;;;;5114009;27;20089;-25
2023/10/26 04:52:58;;;;;;;52.22;31.85;;;9.80;99.90;;;;;;5110840;28;20137;-25
2023/10/26 04:55:24;;;;;;;49.42;30.73;;;9.80;99.90;;;;;;5110425;28;20502;-25
2023/10/26 04:57:49;;;;;;;46.17;31.27;;;9.80;99.90;;;;;;5109666;28;20121;-25
2023/10/26 05:00:15;;;;;;;48.05;31.17;;;9.80;99.90;;;;;;5114708;27;20110;-25
2023/10/26 05:02:41;;;;;;;50.72;31.73;;;9.70;99.90;;;;;;5110374;27;20043;-25
2023/10/26 05:05:07;;;;;;;47.65;30.27;;;9.70;99.90;;;;;;5113243;27;20112;-25
2023/10/26 05:07:33;;;;;;;48.90;31.83;;;9.70;99.90;;;;;;5126829;27;20035;-25
2023/10/26 05:10:05;;;;;;;53.58;31.80;;;9.70;99.90;;;;;;5112932;28;20095;-25
2023/10/26 05:12:31;;;;;;;47.70;30.48;;;9.70;99.90;;;;;;5119521;27;20057;-25
2023/10/26 05:14:56;;;;;;;53.45;30.77;;;9.70;99.90;;;;;;5113070;27;20124;-25
2023/10/26 05:17:22;;;;;;;48.17;30.10;;;9.70;99.90;;;;;;5119904;27;20428;-25
2023/10/26 05:19:48;;;;;;;54.75;32.30;;;9.60;99.90;;;;;;5114696;27;20092;-25
2023/10/26 05:22:14;;;;;;;62.70;34.97;;;9.60;99.90;;;;;;5115499;27;20039;-25
2023/10/26 05:24:42;;;;;;;44.03;29.42;;;9.60;99.90;;;;;;5117546;28;20065;-25
2023/10/26 05:27:07;;;;;;;43.40;29.10;;;9.60;99.90;;;;;;5110533;28;20486;-25
2023/10/26 05:29:33;;;;;;;47.20;29.85;;;9.50;99.90;;;;;;5110895;28;20081;-25
2023/10/26 05:31:58;;;;;;;48.28;29.58;;;9.50;99.90;;;;;;5115958;28;20039;-25
2023/10/26 05:34:24;;;;;;;42.72;27.20;;;9.50;99.90;;;;;;5109855;28;20043;-25
2023/10/26 05:36:50;;;;;;;43.88;28.75;;;9.40;99.90;;;;;;5112385;28;20071;-25
2023/10/26 05:39:15;;;;;;;46.83;30.85;;;9.40;99.90;;;;;;5113009;28;20482;-25
2023/10/26 05:41:43;;;;;;;52.38;31.95;;;9.40;99.90;;;;;;5115745;28;20547;-25
2023/10/26 05:44:09;;;;;;;46.85;30.33;;;9.30;99.90;;;;;;5097839;28;20035;-25
2023/10/26 05:46:35;;;;;;;50.00;30.70;;;9.30;99.90;;;;;;5126115;27;20066;-25
2023/10/26 05:49:01;;;;;;;47.95;30.63;;;9.30;99.90;;;;;;5118905;27;20385;-25
2023/10/26 05:51:27;;;;;;;47.55;29.88;;;9.30;99.90;;;;;;5113140;27;20047;-25
2023/10/26 05:53:52;;;;;;;48.67;29.90;;;9.40;99.90;;;;;;5116392;28;20043;-25
2023/10/26 05:56:18;;;;;;;42.05;27.67;;;9.30;99.90;;;;;;5116164;28;20063;-25
2023/10/26 05:58:44;;;;;;;42.28;27.52;;;9.30;99.90;;;;;;5116285;27;20140;-25
2023/10/26 06:01:10;;;;;;;56.40;31.95;;;9.30;99.90;;;;;;5116199;28;20079;-25
2023/10/26 06:03:35;;;;;;;45.50;28.55;;;9.30;99.90;;;;;;5113158;27;20605;-25
2023/10/26 06:06:02;;;;;;;46.78;28.52;;;9.30;99.90;;;;;;5115542;27;20062;-25
2023/10/26 06:08:29;;;;;;;45.97;28.73;;;9.20;99.90;;;;;;5111836;27;20040;-25
2023/10/26 06:10:55;;;;;;;45.70;30.67;;;9.20;99.90;;;;;;5117206;27;20049;-25
2023/10/26 06:13:20;;;;;;;43.63;29.08;;;9.20;99.90;;;;;;5115875;28;20043;-25
2023/10/26 06:15:46;;;;;;;56.90;32.50;;;9.20;99.90;;;;;;5118377;27;20039;-25
2023/10/26 06:18:12;;;;;;;49.33;29.85;;;9.10;99.90;;;;;;5127160;27;20043;-25
2023/10/26 06:20:38;;;;;;;43.22;27.35;;;9.10;99.90;;;;;;5127114;27;20047;-25
2023/10/26 06:23:04;;;;;;;58.78;32.70;;;9.10;99.90;;;;;;5114054;27;20327;-25
2023/10/26 06:25:35;;;;;;;46.08;29.90;;;9.00;99.90;;;;;;5114430;28;20093;-25
2023/10/26 06:28:00;;;;;;;44.15;28.42;;;9.00;99.90;;;;;;5113410;27;20297;-25
2023/10/26 06:30:26;;;;;;;46.22;30.02;;;9.00;99.90;;;;;;5121164;27;20027;-25
2023/10/26 06:32:52;;;;;;;50.17;31.33;;;9.00;99.90;;;;;;5107270;27;20173;-25
2023/10/26 06:35:18;;;;;;;51.35;30.08;;;9.00;99.90;;;;;;5102027;27;20040;-25
2023/10/26 06:37:43;;;;;;;50.38;29.17;;;9.00;99.90;;;;;;5117644;27;20050;-25
2023/10/26 06:40:09;;;;;;;55.63;31.13;;;9.00;99.90;;;;;;5113395;27;20046;-25
2023/10/26 06:42:35;;;;;;;52.28;31.00;;;9.00;99.90;;;;;;5114717;27;20050;-25
2023/10/26 06:45:02;;;;;;;46.33;27.50;;;8.90;99.90;;;;;;5126024;27;20038;-25
2023/10/26 06:47:28;;;;;;;41.65;26.90;;;8.90;99.90;;;;;;5112960;28;20039;-25
2023/10/26 06:49:55;;;;;;;51.53;29.65;;;8.90;99.90;;;;;;5113541;28;20047;-25
2023/10/26 06:52:20;;;;;;;51.13;29.88;;;8.90;99.90;;;;;;5112975;28;20071;-25
2023/10/26 06:54:47;;;;;;;58.95;31.40;;;8.90;99.90;;;;;;5112545;27;20567;-25
2023/10/26 06:57:13;;;;;;;47.22;29.45;;;8.80;99.90;;;;;;5105989;27;20040;-25
2023/10/26 06:59:41;;;;;;;46.58;29.35;;;8.80;99.90;;;;;;5097683;28;20043;-25
2023/10/26 07:02:07;;;;;;;51.92;29.25;;;8.80;99.90;;;;;;5108945;27;20043;-25
2023/10/26 07:04:33;;;;;;;44.67;29.25;;;8.70;99.90;;;;;;5099068;28;20046;-25
2023/10/26 07:06:59;;;;;;;44.42;28.50;;;8.70;99.90;;;;;;5117199;27;20027;-25
2023/10/26 07:09:24;;;;;;;44.50;27.77;;;8.70;99.90;;;;;;5112612;28;20543;-25
2023/10/26 07:11:50;;;;;;;45.97;28.15;;;8.60;99.90;;;;;;5109978;28;20105;-25
2023/10/26 07:14:16;;;;;;;41.08;27.48;;;8.60;99.90;;;;;;5106827;28;20058;-25
2023/10/26 07:16:41;;;;;;;40.67;27.75;;;8.60;99.90;;;;;;5109444;27;20039;-25
2023/10/26 07:19:07;;;;;;;44.45;27.10;;;8.60;99.90;;;;;;5110334;28;20440;-25
2023/10/26 07:21:34;;;;;;;43.20;28.42;;;8.70;99.90;;;;;;5103932;27;20481;-25
2023/10/26 07:24:00;;;;;;;49.78;29.23;;;8.70;99.90;;;;;;5108792;28;20097;-25
2023/10/26 07:26:26;;;;;;;56.38;31.20;;;8.80;99.90;;;;;;5104519;28;20055;-25
2023/10/26 07:28:54;;;;;;;63.30;33.83;;;8.90;99.90;;;;;;5109971;27;20039;-25
2023/10/26 07:31:21;;;;;;;60.08;34.15;;;8.90;99.90;;;;;;5102046;28;20086;-25
2023/10/26 07:33:48;;;;;;;59.28;33.20;;;9.00;99.90;;;;;;5106262;27;20043;-25
2023/10/26 07:36:13;;;;;;;58.83;33.75;;;9.10;99.90;;;;;;5102950;28;20383;-25
2023/10/26 07:38:40;;;;;;;61.28;34.92;;;9.20;99.90;;;;;;5105303;28;20039;-25
2023/10/26 07:41:07;;;;;;;61.28;34.50;;;9.30;99.90;;;;;;5107906;28;20524;-25
2023/10/26 07:43:34;;;;;;;72.47;38.47;;;9.40;99.90;;;;;;5102069;28;20368;-25
2023/10/26 07:45:59;;;;;;;76.15;37.83;;;9.50;99.90;;;;;;5093954;28;20040;-25
2023/10/26 07:48:25;;;;;;;71.75;39.55;;;9.50;99.90;;;;;;5090648;28;20047;-25
2023/10/26 07:50:51;;;;;;;71.55;38.13;;;9.60;99.90;;;;;;5107635;28;20043;-25
2023/10/26 07:53:17;;;;;;;68.18;35.83;;;9.70;99.90;;;;;;5104455;27;20043;-25
2023/10/26 07:55:46;;;;;;;65.40;35.63;;;9.80;99.90;;;;;;5103183;27;20077;-25
2023/10/26 07:58:12;;;;;;;67.22;35.88;;;9.80;99.90;;;;;;5109013;28;20039;-25
2023/10/26 08:00:38;;;;;;;62.55;34.60;;;9.90;99.90;;;;;;5095361;27;20044;-25
2023/10/26 08:03:03;;;;;;;60.67;35.85;;;9.90;99.90;;;;;;5106395;28;20043;-25
2023/10/26 08:05:30;;;;;;;64.40;35.90;;;10.00;99.90;;;;;;5109522;27;20048;-25
2023/10/26 08:07:55;;;;;;;61.83;34.22;;;10.00;99.90;;;;;;5121592;27;20058;-25
2023/10/26 08:10:23;;;;;;;57.97;34.17;;;10.10;99.90;;;;;;5116003;27;20043;-25
2023/10/26 08:12:52;;;;;;;63.30;34.47;;;10.20;99.90;;;;;;5107819;28;20050;-25
2023/10/26 08:15:20;;;;;;;59.17;34.35;;;10.20;99.90;;;;;;5095551;28;20410;-25
2023/10/26 08:17:46;;;;;;;54.70;32.58;;;10.20;99.90;;;;;;5108750;27;20040;-25
2023/10/26 08:20:12;;;;;;;53.78;32.13;;;10.30;99.90;;;;;;5107664;27;20553;-25
2023/10/26 08:22:38;;;;;;;49.47;31.50;;;10.30;99.90;;;;;;5109064;27;20099;-25
2023/10/26 08:25:05;;;;;;;50.08;30.13;;;10.30;99.90;;;;;;5111015;27;20418;-25
2023/10/26 08:27:31;;;;;;;45.83;29.33;;;10.30;99.90;;;;;;5116924;27;20401;-25
2023/10/26 08:29:57;;;;;;;50.70;30.40;;;10.30;99.90;;;;;;5109437;27;20035;-25
2023/10/26 08:32:23;;;;;;;49.08;29.83;;;10.40;99.90;;;;;;5111673;27;20039;-25
2023/10/26 08:34:49;;;;;;;43.67;29.35;;;10.40;99.90;;;;;;5106698;28;20121;-25
2023/10/26 08:37:15;;;;;;;47.38;30.60;;;10.50;99.90;;;;;;5118961;27;20534;-25
2023/10/26 08:39:41;;;;;;;46.08;28.95;;;10.50;99.90;;;;;;5111187;27;20050;-25
2023/10/26 08:42:08;;;;;;;43.47;28.52;;;10.60;99.90;;;;;;5108869;28;20406;-25
2023/10/26 08:44:34;;;;;;;45.25;30.45;;;10.60;99.90;;;;;;5103827;28;20040;-25
2023/10/26 08:47:03;;;;;;;40.05;27.55;;;10.80;99.90;;;;;;5108330;28;20402;-25
2023/10/26 08:49:30;;;;;;;42.53;28.60;;;11.10;99.90;;;;;;5108651;28;20474;-25
2023/10/26 08:51:56;;;;;;;36.00;24.40;;;11.40;99.90;;;;;;5111433;27;20035;-25
2023/10/26 08:54:22;;;;;;;34.15;24.65;;;11.60;99.90;;;;;;5093411;28;20474;-25
2023/10/26 08:56:48;;;;;;;36.38;24.95;;;11.70;99.90;;;;;;5110553;27;20104;-25
2023/10/26 08:59:15;;;;;;;42.20;24.70;;;11.70;99.90;;;;;;5108135;28;20102;-26
2023/10/26 09:01:45;;;;;;;30.10;22.63;;;11.90;99.90;;;;;;5113790;27;20035;-25
2023/10/26 09:04:11;;;;;;;25.60;19.60;;;12.20;99.90;;;;;;5108056;28;20047;-26
2023/10/26 09:06:51;;;;;;;29.33;20.08;;;12.20;99.90;;;;;;5110106;27;20070;-26
2023/10/26 09:09:17;;;;;;;26.30;20.33;;;12.00;99.90;;;;;;5102411;28;20062;-26
2023/10/26 09:11:46;;;;;;;25.73;20.50;;;11.80;99.90;;;;;;5099206;28;20035;-26
2023/10/26 09:14:18;;;;;;;26.48;19.95;;;11.70;99.90;;;;;;5103158;28;20078;-26
2023/10/26 09:16:45;;;;;;;24.95;19.50;;;11.70;99.90;;;;;;5109684;27;20043;-26
2023/10/26 09:19:11;;;;;;;27.38;20.60;;;11.70;99.90;;;;;;5113273;27;20071;-25
2023/10/26 09:21:57;;;;;;;26.42;20.70;;;11.60;99.90;;;;;;5108621;27;20088;-25
2023/10/26 09:24:29;;;;;;;28.30;20.90;;;11.50;99.90;;;;;;5100777;28;20043;-26
2023/10/26 09:26:56;;;;;;;26.30;20.40;;;11.40;99.90;;;;;;5103890;28;20081;-26
2023/10/26 09:29:38;;;;;;;24.48;20.52;;;11.20;99.90;;;;;;5108047;28;20401;-25
2023/10/26 09:32:04;;;;;;;30.70;21.98;;;11.20;99.90;;;;;;5103835;28;20515;-25
2023/10/26 09:34:30;;;;;;;28.42;20.85;;;11.20;99.90;;;;;;5110926;28;20050;-25
2023/10/26 09:37:03;;;;;;;26.42;20.38;;;11.20;99.90;;;;;;5106782;28;20398;-25
2023/10/26 09:39:31;;;;;;;;;;;11.30;99.90;;;;;;5111277;28;20544;-25
2023/10/26 09:41:58;;;;;;;28.30;19.33;;;11.30;99.90;;;;;;5115474;27;19920;-26
2023/10/26 09:44:24;;;;;;;25.00;18.88;;;11.30;99.90;;;;;;5107872;28;20406;-26
2023/10/26 09:46:50;;;;;;;24.98;18.65;;;11.40;99.90;;;;;;5119527;28;20524;-25
2023/10/26 09:49:16;;;;;;;24.45;18.58;;;11.40;99.90;;;;;;5120502;28;20035;-26
2023/10/26 09:51:43;;;;;;;25.35;19.08;;;11.50;99.90;;;;;;5106583;28;20498;-26
2023/10/26 09:54:10;;;;;;;24.88;18.00;;;11.40;99.90;;;;;;5102696;28;20401;-25
2023/10/26 09:56:38;;;;;;;24.15;19.35;;;11.50;99.90;;;;;;5106213;28;20189;-26
2023/10/26 09:59:05;;;;;;;28.90;19.90;;;11.50;99.90;;;;;;5108477;28;20067;-26
2023/10/26 10:01:39;;;;;;;25.70;19.95;;;11.70;99.90;;;;;;5106687;28;20050;-26
2023/10/26 10:04:10;;;;;;;25.13;19.42;;;12.20;99.90;;;;;;5094425;28;20059;-26
2023/10/26 10:06:50;;;;;;;22.30;18.02;;;12.50;99.90;;;;;;5115684;28;20074;-26
2023/10/26 10:09:25;;;;;;;20.63;18.08;;;12.70;99.90;;;;;;5110797;27;20096;-26
2023/10/26 10:12:14;;;;;;;20.40;17.77;;;12.80;99.90;;;;;;5115931;28;20824;-26
2023/10/26 10:14:54;;;;;;;23.38;17.70;;;12.90;99.90;;;;;;5107441;28;20051;-26
2023/10/26 10:17:22;;;;;;;21.63;17.60;;;12.80;99.90;;;;;;5107790;28;20058;-26
2023/10/26 10:20:13;;;;;;;21.70;17.98;;;12.70;99.90;;;;;;5107539;28;20059;-26
2023/10/26 10:22:46;;;;;;;24.42;19.33;;;12.80;99.90;;;;;;5114838;28;20039;-26
2023/10/26 10:25:13;;;;;;;22.02;17.52;;;12.90;99.90;;;;;;5101570;27;20032;-26
2023/10/26 10:27:48;;;;;;;19.67;16.50;;;13.10;99.90;;;;;;5117935;27;20035;-26
2023/10/26 10:30:14;;;;;;;23.42;17.35;;;13.40;99.90;;;;;;5111037;27;20039;-26
2023/10/26 10:32:42;;;;;;;21.25;17.00;;;13.50;99.90;;;;;;5115604;27;20047;-26
2023/10/26 10:35:10;;;;;;;22.80;17.90;;;13.80;99.90;;;;;;5110744;27;20116;-27
2023/10/26 10:37:36;;;;;;;20.38;16.40;;;13.80;99.90;;;;;;5104577;28;20040;-25
2023/10/26 10:40:16;;;;;;;19.55;16.58;;;13.80;99.90;;;;;;5109297;28;20039;-25
2023/10/26 10:42:49;;;;;;;18.30;15.40;;;13.90;99.90;;;;;;5115016;27;20035;-26
2023/10/26 10:45:16;;;;;;;18.00;15.48;;;13.90;99.90;;;;;;5110732;27;20035;-25
2023/10/26 10:47:43;;;;;;;16.30;14.63;;;13.90;99.90;;;;;;5100029;27;20040;-25
2023/10/26 10:50:26;;;;;;;15.35;13.75;;;13.80;99.90;;;;;;5102014;28;20436;-25
2023/10/26 10:52:54;;;;;;;17.77;14.02;;;13.70;99.90;;;;;;5104993;27;20046;-25
2023/10/26 10:55:32;;;;;;;18.80;14.70;;;13.60;99.90;;;;;;5122213;27;20043;-25
2023/10/26 10:58:01;;;;;;;17.95;14.23;;;13.50;99.90;;;;;;5098018;27;20093;-25
2023/10/26 11:00:41;;;;;;;16.50;14.80;;;13.40;99.90;;;;;;5089792;28;20040;-25
2023/10/26 11:03:08;;;;;;;17.70;13.68;;;13.20;99.90;;;;;;5106505;27;20052;-25
2023/10/26 11:05:41;;;;;;;16.35;13.55;;;13.30;99.90;;;;;;5103394;28;20089;-25
2023/10/26 11:08:07;;;;;;;;;;;13.40;99.90;;;;;;5106034;27;20031;-25
2023/10/26 11:10:36;;;;;;;16.38;13.65;;;13.50;99.90;;;;;;5107551;27;20386;-25
2023/10/26 11:13:03;;;;;;;16.35;14.13;;;13.50;99.90;;;;;;5111090;27;20398;-25
2023/10/26 11:15:36;;;;;;;15.18;13.55;;;13.50;99.90;;;;;;5109540;28;20491;-26
2023/10/26 11:18:04;;;;;;;16.92;13.85;;;13.40;99.90;;;;;;5106426;27;20086;-26
2023/10/26 11:20:37;;;;;;;15.82;13.82;;;13.40;99.90;;;;;;5099218;27;20046;-26
2023/10/26 11:23:04;;;;;;;16.17;13.95;;;13.40;99.90;;;;;;5104541;28;20122;-26
2023/10/26 11:25:30;;;;;;;17.38;14.23;;;13.30;99.90;;;;;;5110868;27;20075;-26
2023/10/26 11:27:56;;;;;;;18.60;15.38;;;13.40;99.90;;;;;;5117750;27;20502;-25
2023/10/26 11:30:22;;;;;;;20.38;15.07;;;13.50;99.90;;;;;;5117175;27;20037;-25
2023/10/26 11:32:47;;;;;;;17.17;14.80;;;13.80;99.90;;;;;;5110916;27;20047;-25
2023/10/26 11:35:14;;;;;;;17.52;14.85;;;14.00;99.90;;;;;;5109830;28;20082;-25
2023/10/26 11:37:45;;;;;;;17.15;15.05;;;14.40;99.90;;;;;;5112018;27;20046;-25
2023/10/26 11:40:12;;;;;;;17.25;14.88;;;14.90;99.90;;;;;;5116705;27;20081;-25
2023/10/26 11:42:53;;;;;;;18.80;14.98;;;15.20;99.90;;;;;;5120569;27;20044;-26
2023/10/26 11:45:21;;;;;;;16.98;14.65;;;15.30;99.90;;;;;;5099737;27;20028;-26
2023/10/26 11:48:00;;;;;;;16.58;14.77;;;15.40;99.90;;;;;;5099939;28;20078;-26
2023/10/26 11:50:32;;;;;;;16.00;14.25;;;15.50;99.90;;;;;;5105606;28;20115;-26
2023/10/26 11:53:00;;;;;;;15.13;13.60;;;15.40;99.90;;;;;;5099916;28;20051;-26
2023/10/26 11:55:27;;;;;;;15.50;13.73;;;15.40;99.90;;;;;;5089027;28;20055;-26
2023/10/26 11:57:56;;;;;;;13.23;11.57;;;15.50;99.90;;;;;;5108791;28;20387;-26
2023/10/26 12:00:22;;;;;;;13.05;11.48;;;15.60;99.90;;;;;;5103534;28;20054;-26
2023/10/26 12:02:48;;;;;;;12.30;11.05;;;15.60;99.90;;;;;;5096990;28;20044;-26
2023/10/26 12:05:16;;;;;;;11.20;9.90;;;15.40;99.90;;;;;;5088374;28;20068;-26
2023/10/26 12:07:47;;;;;;;11.27;10.20;;;15.20;99.90;;;;;;5089910;28;20054;-26
2023/10/26 12:10:15;;;;;;;11.80;9.93;;;15.00;99.90;;;;;;5110114;27;20051;-26
2023/10/26 12:12:41;;;;;;;14.88;10.27;;;14.80;99.90;;;;;;5108985;27;20089;-26
2023/10/26 12:15:07;;;;;;;13.25;10.63;;;14.80;99.90;;;;;;5107350;27;20035;-26
2023/10/26 12:17:33;;;;;;;11.50;10.05;;;14.90;99.90;;;;;;5110949;27;20067;-26
2023/10/26 12:19:59;;;;;;;9.80;8.85;;;15.30;99.90;;;;;;5102037;27;20064;-26
2023/10/26 12:22:25;;;;;;;10.40;9.40;;;15.80;99.90;;;;;;5104041;28;20052;-26
2023/10/26 12:24:50;;;;;;;10.15;8.70;;;16.00;99.90;;;;;;5103923;27;20043;-26
2023/10/26 12:27:20;;;;;;;10.35;8.98;;;16.00;99.90;;;;;;5113699;27;20133;-26
2023/10/26 12:29:47;;;;;;;9.98;9.07;;;16.00;99.90;;;;;;5109187;28;20501;-26
2023/10/26 12:32:13;;;;;;;9.88;8.98;;;16.00;99.90;;;;;;5110593;28;20036;-26